sensor_id;sensor_type;location;lat;lon;timestamp;P1;durP1;ratioP1;P2;durP2;ratioP2
43962;SDS011;29622;45.534;9.242;2022-12-07T00:02:02;44.15;;;20.80;;
43962;SDS011;29622;45.534;9.242;2022-12-07T00:07:04;25.40;;;11.95;;
43962;SDS011;29622;45.534;9.242;2022-12-07T00:12:05;50.15;;;20.45;;
43962;SDS011;29622;45.534;9.242;2022-12-07T00:17:13;41.87;;;20.10;;
43962;SDS011;29622;45.534;9.242;2022-12-07T00:22:15;49.22;;;21.48;;
43962;SDS011;29622;45.534;9.242;2022-12-07T00:27:15;47.65;;;18.92;;
43962;SDS011;29622;45.534;9.242;2022-12-07T00:32:16;39.17;;;19.70;;
43962;SDS011;29622;45.534;9.242;2022-12-07T00:37:17;47.20;;;20.20;;
43962;SDS011;29622;45.534;9.242;2022-12-07T00:42:18;40.78;;;19.88;;
43962;SDS011;29622;45.534;9.242;2022-12-07T00:47:20;46.38;;;19.48;;
43962;SDS011;29622;45.534;9.242;2022-12-07T00:52:21;44.13;;;20.17;;
43962;SDS011;29622;45.534;9.242;2022-12-07T00:57:23;42.80;;;20.52;;
43962;SDS011;29622;45.534;9.242;2022-12-07T01:02:27;38.30;;;19.63;;
43962;SDS011;29622;45.534;9.242;2022-12-07T01:07:31;44.88;;;20.15;;
43962;SDS011;29622;45.534;9.242;2022-12-07T01:12:32;47.25;;;20.50;;
43962;SDS011;29622;45.534;9.242;2022-12-07T01:17:42;33.70;;;18.35;;
43962;SDS011;29622;45.534;9.242;2022-12-07T01:22:44;38.20;;;18.45;;
43962;SDS011;29622;45.534;9.242;2022-12-07T01:27:45;36.63;;;17.60;;
43962;SDS011;29622;45.534;9.242;2022-12-07T01:32:46;45.47;;;18.88;;
43962;SDS011;29622;45.534;9.242;2022-12-07T01:37:49;40.55;;;19.17;;
43962;SDS011;29622;45.534;9.242;2022-12-07T01:42:50;36.33;;;17.98;;
43962;SDS011;29622;45.534;9.242;2022-12-07T01:47:55;42.58;;;19.13;;
43962;SDS011;29622;45.534;9.242;2022-12-07T01:53:06;40.22;;;18.10;;
43962;SDS011;29622;45.534;9.242;2022-12-07T01:58:29;37.53;;;18.85;;
43962;SDS011;29622;45.534;9.242;2022-12-07T02:03:44;37.97;;;18.88;;
43962;SDS011;29622;45.534;9.242;2022-12-07T02:09:13;41.70;;;18.77;;
43962;SDS011;29622;45.534;9.242;2022-12-07T02:14:38;38.30;;;17.75;;
43962;SDS011;29622;45.534;9.242;2022-12-07T02:30:48;32.25;;;15.93;;
43962;SDS011;29622;45.534;9.242;2022-12-07T02:35:58;36.42;;;16.55;;
43962;SDS011;29622;45.534;9.242;2022-12-07T02:41:27;34.20;;;16.92;;
43962;SDS011;29622;45.534;9.242;2022-12-07T02:46:54;35.45;;;18.08;;
43962;SDS011;29622;45.534;9.242;2022-12-07T02:52:01;36.95;;;17.23;;
43962;SDS011;29622;45.534;9.242;2022-12-07T03:03:00;25.00;;;12.27;;
43962;SDS011;29622;45.534;9.242;2022-12-07T03:08:33;30.25;;;14.95;;
43962;SDS011;29622;45.534;9.242;2022-12-07T03:13:59;31.13;;;16.13;;
43962;SDS011;29622;45.534;9.242;2022-12-07T03:19:10;29.63;;;15.15;;
43962;SDS011;29622;45.534;9.242;2022-12-07T03:24:17;32.25;;;15.32;;
43962;SDS011;29622;45.534;9.242;2022-12-07T03:29:27;27.48;;;14.02;;
43962;SDS011;29622;45.534;9.242;2022-12-07T03:34:32;27.30;;;13.77;;
43962;SDS011;29622;45.534;9.242;2022-12-07T03:39:38;31.38;;;15.38;;
43962;SDS011;29622;45.534;9.242;2022-12-07T03:44:50;28.92;;;13.95;;
43962;SDS011;29622;45.534;9.242;2022-12-07T03:49:59;29.67;;;14.07;;
43962;SDS011;29622;45.534;9.242;2022-12-07T03:55:15;31.65;;;13.63;;
43962;SDS011;29622;45.534;9.242;2022-12-07T04:00:30;23.60;;;12.23;;
43962;SDS011;29622;45.534;9.242;2022-12-07T04:05:31;24.20;;;11.90;;
43962;SDS011;29622;45.534;9.242;2022-12-07T04:10:39;25.08;;;11.75;;
43962;SDS011;29622;45.534;9.242;2022-12-07T04:15:47;30.27;;;12.90;;
43962;SDS011;29622;45.534;9.242;2022-12-07T04:20:53;24.08;;;12.68;;
43962;SDS011;29622;45.534;9.242;2022-12-07T04:26:06;27.83;;;12.82;;
43962;SDS011;29622;45.534;9.242;2022-12-07T04:31:13;24.50;;;11.88;;
43962;SDS011;29622;45.534;9.242;2022-12-07T04:36:14;26.52;;;12.75;;
43962;SDS011;29622;45.534;9.242;2022-12-07T04:41:30;23.95;;;12.50;;
43962;SDS011;29622;45.534;9.242;2022-12-07T04:46:57;25.85;;;11.45;;
43962;SDS011;29622;45.534;9.242;2022-12-07T04:52:10;30.65;;;11.63;;
43962;SDS011;29622;45.534;9.242;2022-12-07T04:57:40;24.77;;;10.60;;
43962;SDS011;29622;45.534;9.242;2022-12-07T05:08:32;21.98;;;9.70;;
43962;SDS011;29622;45.534;9.242;2022-12-07T05:13:48;26.80;;;12.10;;
43962;SDS011;29622;45.534;9.242;2022-12-07T05:18:58;28.42;;;13.15;;
43962;SDS011;29622;45.534;9.242;2022-12-07T05:24:24;24.73;;;12.27;;
43962;SDS011;29622;45.534;9.242;2022-12-07T05:29:33;34.83;;;12.30;;
43962;SDS011;29622;45.534;9.242;2022-12-07T05:34:34;26.00;;;12.02;;
43962;SDS011;29622;45.534;9.242;2022-12-07T05:39:38;28.35;;;12.35;;
43962;SDS011;29622;45.534;9.242;2022-12-07T05:44:53;20.92;;;11.40;;
43962;SDS011;29622;45.534;9.242;2022-12-07T05:50:34;26.42;;;12.05;;
43962;SDS011;29622;45.534;9.242;2022-12-07T05:55:35;25.52;;;11.68;;
43962;SDS011;29622;45.534;9.242;2022-12-07T06:00:39;25.50;;;11.80;;
43962;SDS011;29622;45.534;9.242;2022-12-07T06:05:43;24.25;;;11.40;;
43962;SDS011;29622;45.534;9.242;2022-12-07T06:11:09;25.25;;;11.57;;
43962;SDS011;29622;45.534;9.242;2022-12-07T06:16:58;27.35;;;11.68;;
43962;SDS011;29622;45.534;9.242;2022-12-07T06:22:02;24.58;;;12.73;;
43962;SDS011;29622;45.534;9.242;2022-12-07T06:27:10;26.70;;;11.80;;
43962;SDS011;29622;45.534;9.242;2022-12-07T06:32:20;35.10;;;14.90;;
43962;SDS011;29622;45.534;9.242;2022-12-07T06:37:22;27.77;;;11.80;;
43962;SDS011;29622;45.534;9.242;2022-12-07T06:42:33;14.20;;;6.80;;
43962;SDS011;29622;45.534;9.242;2022-12-07T06:48:23;42.83;;;11.10;;
43962;SDS011;29622;45.534;9.242;2022-12-07T06:53:25;10.20;;;6.38;;
43962;SDS011;29622;45.534;9.242;2022-12-07T06:58:39;24.42;;;13.02;;
43962;SDS011;29622;45.534;9.242;2022-12-07T07:03:44;28.20;;;13.98;;
43962;SDS011;29622;45.534;9.242;2022-12-07T07:08:54;25.73;;;12.82;;
43962;SDS011;29622;45.534;9.242;2022-12-07T07:13:57;32.28;;;15.13;;
43962;SDS011;29622;45.534;9.242;2022-12-07T07:19:03;33.10;;;15.85;;
43962;SDS011;29622;45.534;9.242;2022-12-07T07:24:05;31.80;;;17.00;;
43962;SDS011;29622;45.534;9.242;2022-12-07T07:29:06;35.75;;;17.48;;
43962;SDS011;29622;45.534;9.242;2022-12-07T07:34:07;39.80;;;17.75;;
43962;SDS011;29622;45.534;9.242;2022-12-07T07:39:09;34.60;;;16.23;;
43962;SDS011;29622;45.534;9.242;2022-12-07T07:44:19;46.65;;;21.75;;
43962;SDS011;29622;45.534;9.242;2022-12-07T07:49:31;37.33;;;17.30;;
43962;SDS011;29622;45.534;9.242;2022-12-07T07:54:37;36.03;;;18.10;;
43962;SDS011;29622;45.534;9.242;2022-12-07T07:59:43;48.65;;;19.77;;
43962;SDS011;29622;45.534;9.242;2022-12-07T08:04:47;46.83;;;20.38;;
43962;SDS011;29622;45.534;9.242;2022-12-07T08:09:50;52.95;;;27.45;;
43962;SDS011;29622;45.534;9.242;2022-12-07T08:15:15;58.35;;;27.08;;
43962;SDS011;29622;45.534;9.242;2022-12-07T08:20:25;62.17;;;24.67;;
43962;SDS011;29622;45.534;9.242;2022-12-07T08:25:39;29.27;;;12.88;;
43962;SDS011;29622;45.534;9.242;2022-12-07T08:30:40;67.40;;;29.52;;
43962;SDS011;29622;45.534;9.242;2022-12-07T08:35:41;32.83;;;17.52;;
43962;SDS011;29622;45.534;9.242;2022-12-07T08:40:42;19.67;;;10.23;;
43962;SDS011;29622;45.534;9.242;2022-12-07T08:45:43;36.20;;;16.73;;
43962;SDS011;29622;45.534;9.242;2022-12-07T08:50:44;47.58;;;23.23;;
43962;SDS011;29622;45.534;9.242;2022-12-07T08:55:45;41.28;;;18.75;;
43962;SDS011;29622;45.534;9.242;2022-12-07T09:00:46;26.15;;;14.50;;
43962;SDS011;29622;45.534;9.242;2022-12-07T09:05:49;31.05;;;14.70;;
43962;SDS011;29622;45.534;9.242;2022-12-07T09:10:50;29.23;;;15.48;;
43962;SDS011;29622;45.534;9.242;2022-12-07T09:15:51;29.02;;;14.75;;
43962;SDS011;29622;45.534;9.242;2022-12-07T09:20:52;32.05;;;15.50;;
43962;SDS011;29622;45.534;9.242;2022-12-07T09:25:53;30.40;;;15.52;;
43962;SDS011;29622;45.534;9.242;2022-12-07T09:31:22;33.60;;;19.35;;
43962;SDS011;29622;45.534;9.242;2022-12-07T09:36:26;22.15;;;10.93;;
43962;SDS011;29622;45.534;9.242;2022-12-07T09:41:28;17.83;;;8.55;;
43962;SDS011;29622;45.534;9.242;2022-12-07T09:46:37;20.88;;;10.75;;
43962;SDS011;29622;45.534;9.242;2022-12-07T09:51:40;24.80;;;12.82;;
43962;SDS011;29622;45.534;9.242;2022-12-07T09:56:42;16.10;;;8.52;;
43962;SDS011;29622;45.534;9.242;2022-12-07T10:08:03;27.15;;;15.32;;
43962;SDS011;29622;45.534;9.242;2022-12-07T10:13:35;29.20;;;15.93;;
43962;SDS011;29622;45.534;9.242;2022-12-07T10:18:45;30.75;;;17.00;;
43962;SDS011;29622;45.534;9.242;2022-12-07T10:24:00;29.60;;;17.42;;
43962;SDS011;29622;45.534;9.242;2022-12-07T10:34:41;30.13;;;16.45;;
43962;SDS011;29622;45.534;9.242;2022-12-07T10:40:01;13.90;;;7.43;;
43962;SDS011;29622;45.534;9.242;2022-12-07T10:45:31;28.77;;;14.25;;
43962;SDS011;29622;45.534;9.242;2022-12-07T10:51:08;20.00;;;10.18;;
43962;SDS011;29622;45.534;9.242;2022-12-07T10:56:48;33.00;;;15.98;;
43962;SDS011;29622;45.534;9.242;2022-12-07T11:02:30;21.48;;;11.27;;
43962;SDS011;29622;45.534;9.242;2022-12-07T11:20:05;24.08;;;10.05;;
43962;SDS011;29622;45.534;9.242;2022-12-07T11:25:31;33.97;;;15.02;;
43962;SDS011;29622;45.534;9.242;2022-12-07T11:54:40;27.70;;;14.15;;
43962;SDS011;29622;45.534;9.242;2022-12-07T11:59:45;28.52;;;15.38;;
43962;SDS011;29622;45.534;9.242;2022-12-07T12:05:13;35.03;;;17.42;;
43962;SDS011;29622;45.534;9.242;2022-12-07T12:10:27;34.22;;;16.92;;
43962;SDS011;29622;45.534;9.242;2022-12-07T12:15:44;40.90;;;17.38;;
43962;SDS011;29622;45.534;9.242;2022-12-07T12:20:57;26.65;;;15.00;;
43962;SDS011;29622;45.534;9.242;2022-12-07T12:26:06;22.33;;;12.57;;
43962;SDS011;29622;45.534;9.242;2022-12-07T12:31:15;25.67;;;14.65;;
43962;SDS011;29622;45.534;9.242;2022-12-07T12:46:54;17.95;;;9.68;;
43962;SDS011;29622;45.534;9.242;2022-12-07T13:02:30;13.50;;;8.40;;
43962;SDS011;29622;45.534;9.242;2022-12-07T13:23:55;20.20;;;11.40;;
43962;SDS011;29622;45.534;9.242;2022-12-07T13:29:09;41.47;;;18.63;;
43962;SDS011;29622;45.534;9.242;2022-12-07T13:34:28;35.05;;;20.40;;
43962;SDS011;29622;45.534;9.242;2022-12-07T13:39:32;16.05;;;8.02;;
43962;SDS011;29622;45.534;9.242;2022-12-07T13:44:38;30.38;;;14.65;;
43962;SDS011;29622;45.534;9.242;2022-12-07T13:49:48;40.22;;;20.33;;
43962;SDS011;29622;45.534;9.242;2022-12-07T13:55:05;34.03;;;20.63;;
43962;SDS011;29622;45.534;9.242;2022-12-07T14:05:24;17.43;;;9.53;;
43962;SDS011;29622;45.534;9.242;2022-12-07T14:10:34;46.55;;;24.20;;
43962;SDS011;29622;45.534;9.242;2022-12-07T14:15:37;33.22;;;19.60;;
43962;SDS011;29622;45.534;9.242;2022-12-07T14:20:39;20.00;;;11.15;;
43962;SDS011;29622;45.534;9.242;2022-12-07T14:26:03;28.45;;;15.40;;
43962;SDS011;29622;45.534;9.242;2022-12-07T14:31:26;35.80;;;19.60;;
43962;SDS011;29622;45.534;9.242;2022-12-07T14:36:28;19.58;;;9.88;;
43962;SDS011;29622;45.534;9.242;2022-12-07T14:41:32;20.10;;;11.13;;
43962;SDS011;29622;45.534;9.242;2022-12-07T14:47:00;31.42;;;17.85;;
43962;SDS011;29622;45.534;9.242;2022-12-07T14:52:26;29.77;;;17.58;;
43962;SDS011;29622;45.534;9.242;2022-12-07T14:58:09;37.03;;;17.88;;
43962;SDS011;29622;45.534;9.242;2022-12-07T15:03:26;25.55;;;12.68;;
43962;SDS011;29622;45.534;9.242;2022-12-07T15:15:15;32.70;;;17.63;;
43962;SDS011;29622;45.534;9.242;2022-12-07T15:20:26;34.40;;;19.33;;
43962;SDS011;29622;45.534;9.242;2022-12-07T15:25:59;36.25;;;19.95;;
43962;SDS011;29622;45.534;9.242;2022-12-07T15:31:12;40.92;;;19.55;;
43962;SDS011;29622;45.534;9.242;2022-12-07T15:36:18;37.10;;;20.25;;
43962;SDS011;29622;45.534;9.242;2022-12-07T15:41:25;48.30;;;20.52;;
43962;SDS011;29622;45.534;9.242;2022-12-07T15:46:32;36.05;;;20.67;;
43962;SDS011;29622;45.534;9.242;2022-12-07T15:51:44;37.10;;;19.70;;
43962;SDS011;29622;45.534;9.242;2022-12-07T15:56:51;39.50;;;19.33;;
43962;SDS011;29622;45.534;9.242;2022-12-07T16:01:58;45.53;;;19.92;;
43962;SDS011;29622;45.534;9.242;2022-12-07T16:07:35;46.15;;;21.40;;
43962;SDS011;29622;45.534;9.242;2022-12-07T16:12:55;52.40;;;21.05;;
43962;SDS011;29622;45.534;9.242;2022-12-07T16:18:37;41.72;;;20.83;;
43962;SDS011;29622;45.534;9.242;2022-12-07T16:23:53;38.00;;;19.42;;
43962;SDS011;29622;45.534;9.242;2022-12-07T16:28:58;46.30;;;20.58;;
43962;SDS011;29622;45.534;9.242;2022-12-07T16:34:11;39.03;;;19.98;;
43962;SDS011;29622;45.534;9.242;2022-12-07T16:39:15;40.00;;;20.73;;
43962;SDS011;29622;45.534;9.242;2022-12-07T16:44:44;50.60;;;21.77;;
43962;SDS011;29622;45.534;9.242;2022-12-07T16:49:46;41.97;;;20.80;;
43962;SDS011;29622;45.534;9.242;2022-12-07T16:55:08;45.85;;;21.77;;
43962;SDS011;29622;45.534;9.242;2022-12-07T17:13:33;54.00;;;24.50;;
43962;SDS011;29622;45.534;9.242;2022-12-07T17:19:03;47.65;;;23.88;;
43962;SDS011;29622;45.534;9.242;2022-12-07T17:24:10;54.95;;;24.30;;
43962;SDS011;29622;45.534;9.242;2022-12-07T17:29:37;53.60;;;26.15;;
43962;SDS011;29622;45.534;9.242;2022-12-07T17:40:46;173.95;;;33.15;;
43962;SDS011;29622;45.534;9.242;2022-12-07T17:46:31;75.15;;;25.05;;
43962;SDS011;29622;45.534;9.242;2022-12-07T17:51:34;114.05;;;28.48;;
43962;SDS011;29622;45.534;9.242;2022-12-07T17:56:53;85.35;;;25.80;;
43962;SDS011;29622;45.534;9.242;2022-12-07T18:01:55;55.90;;;22.92;;
43962;SDS011;29622;45.534;9.242;2022-12-07T18:07:02;97.40;;;26.00;;
43962;SDS011;29622;45.534;9.242;2022-12-07T18:12:47;81.05;;;25.17;;
43962;SDS011;29622;45.534;9.242;2022-12-07T18:17:48;27.90;;;12.38;;
43962;SDS011;29622;45.534;9.242;2022-12-07T18:22:51;29.23;;;11.35;;
43962;SDS011;29622;45.534;9.242;2022-12-07T18:28:20;120.77;;;24.07;;
43962;SDS011;29622;45.534;9.242;2022-12-07T18:33:22;120.78;;;23.95;;
43962;SDS011;29622;45.534;9.242;2022-12-07T18:38:23;133.10;;;23.55;;
43962;SDS011;29622;45.534;9.242;2022-12-07T18:50:36;99.97;;;22.70;;
43962;SDS011;29622;45.534;9.242;2022-12-07T18:55:37;69.50;;;23.80;;
43962;SDS011;29622;45.534;9.242;2022-12-07T19:00:54;56.55;;;22.48;;
43962;SDS011;29622;45.534;9.242;2022-12-07T19:06:47;45.33;;;19.75;;
43962;SDS011;29622;45.534;9.242;2022-12-07T19:18:52;52.28;;;23.13;;
43962;SDS011;29622;45.534;9.242;2022-12-07T19:23:58;53.85;;;24.52;;
43962;SDS011;29622;45.534;9.242;2022-12-07T19:29:28;21.58;;;11.30;;
43962;SDS011;29622;45.534;9.242;2022-12-07T19:40:13;67.82;;;24.85;;
43962;SDS011;29622;45.534;9.242;2022-12-07T19:45:14;61.47;;;22.88;;
43962;SDS011;29622;45.534;9.242;2022-12-07T19:50:18;63.50;;;23.70;;
43962;SDS011;29622;45.534;9.242;2022-12-07T19:55:19;46.25;;;19.98;;
43962;SDS011;29622;45.534;9.242;2022-12-07T20:00:23;17.50;;;9.05;;
43962;SDS011;29622;45.534;9.242;2022-12-07T20:05:30;56.08;;;24.52;;
43962;SDS011;29622;45.534;9.242;2022-12-07T20:10:39;54.60;;;25.15;;
43962;SDS011;29622;45.534;9.242;2022-12-07T20:15:43;55.85;;;27.23;;
43962;SDS011;29622;45.534;9.242;2022-12-07T20:20:59;28.85;;;12.65;;
43962;SDS011;29622;45.534;9.242;2022-12-07T20:26:04;56.03;;;24.92;;
43962;SDS011;29622;45.534;9.242;2022-12-07T20:31:07;42.42;;;20.15;;
43962;SDS011;29622;45.534;9.242;2022-12-07T20:36:13;54.65;;;26.40;;
43962;SDS011;29622;45.534;9.242;2022-12-07T20:41:15;46.33;;;21.42;;
43962;SDS011;29622;45.534;9.242;2022-12-07T20:46:37;44.85;;;21.67;;
43962;SDS011;29622;45.534;9.242;2022-12-07T20:51:39;62.00;;;24.10;;
43962;SDS011;29622;45.534;9.242;2022-12-07T20:56:41;53.13;;;22.83;;
43962;SDS011;29622;45.534;9.242;2022-12-07T21:01:42;48.97;;;21.27;;
43962;SDS011;29622;45.534;9.242;2022-12-07T21:06:43;46.35;;;23.83;;
43962;SDS011;29622;45.534;9.242;2022-12-07T21:11:45;52.22;;;22.95;;
43962;SDS011;29622;45.534;9.242;2022-12-07T21:16:46;53.45;;;24.38;;
43962;SDS011;29622;45.534;9.242;2022-12-07T21:21:47;53.38;;;23.55;;
43962;SDS011;29622;45.534;9.242;2022-12-07T21:26:48;27.70;;;11.60;;
43962;SDS011;29622;45.534;9.242;2022-12-07T21:31:48;53.08;;;24.80;;
43962;SDS011;29622;45.534;9.242;2022-12-07T21:36:49;47.08;;;22.23;;
43962;SDS011;29622;45.534;9.242;2022-12-07T21:41:50;61.30;;;23.60;;
43962;SDS011;29622;45.534;9.242;2022-12-07T21:46:51;45.10;;;23.27;;
43962;SDS011;29622;45.534;9.242;2022-12-07T21:51:51;67.47;;;22.75;;
43962;SDS011;29622;45.534;9.242;2022-12-07T21:56:52;39.95;;;20.80;;
43962;SDS011;29622;45.534;9.242;2022-12-07T22:01:52;50.88;;;23.77;;
43962;SDS011;29622;45.534;9.242;2022-12-07T22:06:53;42.33;;;19.85;;
43962;SDS011;29622;45.534;9.242;2022-12-07T22:11:56;51.03;;;23.10;;
43962;SDS011;29622;45.534;9.242;2022-12-07T22:16:56;23.73;;;10.68;;
43962;SDS011;29622;45.534;9.242;2022-12-07T22:21:57;46.55;;;22.70;;
43962;SDS011;29622;45.534;9.242;2022-12-07T22:26:58;46.63;;;23.05;;
43962;SDS011;29622;45.534;9.242;2022-12-07T22:32:00;26.40;;;11.20;;
43962;SDS011;29622;45.534;9.242;2022-12-07T22:37:00;34.90;;;14.70;;
43962;SDS011;29622;45.534;9.242;2022-12-07T22:42:01;48.83;;;22.00;;
43962;SDS011;29622;45.534;9.242;2022-12-07T22:47:02;41.83;;;20.92;;
43962;SDS011;29622;45.534;9.242;2022-12-07T22:52:02;22.90;;;11.45;;
43962;SDS011;29622;45.534;9.242;2022-12-07T22:57:03;26.38;;;12.55;;
43962;SDS011;29622;45.534;9.242;2022-12-07T23:02:05;18.33;;;10.05;;
43962;SDS011;29622;45.534;9.242;2022-12-07T23:07:05;20.63;;;9.75;;
43962;SDS011;29622;45.534;9.242;2022-12-07T23:12:06;40.38;;;18.45;;
43962;SDS011;29622;45.534;9.242;2022-12-07T23:17:25;43.53;;;22.40;;
43962;SDS011;29622;45.534;9.242;2022-12-07T23:22:25;42.10;;;21.75;;
43962;SDS011;29622;45.534;9.242;2022-12-07T23:27:26;46.15;;;22.40;;
43962;SDS011;29622;45.534;9.242;2022-12-07T23:32:27;42.15;;;22.52;;
43962;SDS011;29622;45.534;9.242;2022-12-07T23:37:27;36.78;;;15.60;;
43962;SDS011;29622;45.534;9.242;2022-12-07T23:42:28;46.58;;;21.60;;
43962;SDS011;29622;45.534;9.242;2022-12-07T23:47:29;28.63;;;12.25;;
43962;SDS011;29622;45.534;9.242;2022-12-07T23:52:29;32.63;;;15.13;;
43962;SDS011;29622;45.534;9.242;2022-12-07T23:57:31;50.35;;;23.58;;
